SMA weather

Santa Maria Airport
Vila do Porto, Autonomous Region of Azores, Portugal

Public forecast

Using degrees Celsius for public forecast. Weather courtesy of forecast.io.

METAR (pilot weather report)

Retrieved 2019/05/21 12:30 UTC (0 seconds ago):

LPAZ 211230Z 21015KT 9999 FEW015 SCT038 22/17 Q1016

TAF (pilot weather forecast)

Retrieved 2019/05/21 12:18 UTC (0 seconds ago):

TAF LPAZ 211100Z 2112/2218 20015KT 9999 SCT012 BKN035 TEMPO 2112/2118 SCT008 PROB30 TEMPO 2112/2118 3000 DZ BR SCT002 BKN004 TEMPO 2112/2121 21018G28KT BECMG 2118/2121 5000 -RADZ BR SCT006 BKN012 BECMG 2122/2201 29012KT 9999 NSW SCT018 SCT030 TEMPO 2203/2218 FEW020